NCAR-RAP Real-Time Weather Data

Output produced by METARs form (24 January 2018  01:54 UTC)
found at http://weather.rap.ucar.edu/surface/
 
Conditions at: KSDF observed 24 January 2018  01:50 UTC
Temperature: 2.0°C (36°F)
Dewpoint: -1.0°C (30°F) [RH = 80%]
Pressure (altimeter): 30.16 inches Hg (1021.4 mb)
Winds: from the W (270 degrees) at 13 MPH (11 knots; 5.7 m/s)
Visibility: 10 or more miles (16+ km)
Ceiling: 1800 feet AGL
Clouds: broken clouds at 1800 feet AGL
overcast cloud deck at 3900 feet AGL
Present Weather: no significant weather observed at this time
KSDF 240150Z 27011KT 10SM BKN018 OVC039 02/M01 A3016 RMK AO2 SNB32E42 P0000